Time;durP1;ratioP1;P1;durP2;ratioP2;P2;SDS_P1;SDS_P2;PMS_P1;PMS_P2;Temp;Humidity;BMP_temperature;BMP_pressure;BME280_temperature;BME280_humidity;BME280_pressure;Samples;Min_cycle;Max_cycle;Signal;HPM_P1;HPM_P2
2023/10/01 00:01:16;;;;;;;;;18.67;15.67;;;;;18.06;67.61;101753.53;5058486;28;45381;-84
2023/10/01 00:03:42;;;;;;;;;16.00;13.33;;;;;17.91;67.92;101741.13;5057746;28;45523;-82
2023/10/01 00:06:07;;;;;;;;;18.33;17.00;;;;;17.76;68.13;101715.28;5057264;28;45436;-80
2023/10/01 00:08:34;;;;;;;;;15.00;10.33;;;;;17.84;68.31;101738.00;5057034;28;45421;-82
2023/10/01 00:11:00;;;;;;;;;17.00;16.00;;;;;17.86;68.04;101743.28;5057419;28;45329;-81
2023/10/01 00:13:26;;;;;;;;;19.00;16.33;;;;;17.90;68.28;101758.25;5057231;28;45501;-80
2023/10/01 00:15:54;;;;;;;;;14.00;12.00;;;;;17.78;68.52;101734.88;5057425;28;46368;-80
2023/10/01 00:18:20;;;;;;;;;17.33;14.00;;;;;17.79;68.84;101741.97;5057423;28;45396;-80
2023/10/01 00:20:46;;;;;;;;;17.00;15.33;;;;;17.84;68.77;101755.94;5056167;28;45482;-80
2023/10/01 00:23:12;;;;;;;;;17.67;13.33;;;;;17.79;68.87;101747.34;5057266;28;45501;-82
2023/10/01 00:25:38;;;;;;;;;19.67;17.67;;;;;17.75;68.88;101756.59;5057156;28;46051;-80
2023/10/01 00:28:04;;;;;;;;;18.00;15.00;;;;;17.80;69.04;101766.06;5057084;28;45439;-81
2023/10/01 00:30:31;;;;;;;;;16.00;13.00;;;;;17.72;69.19;101746.91;5057182;28;45363;-83
2023/10/01 00:32:56;;;;;;;;;17.67;16.67;;;;;17.73;69.12;101754.03;5057415;28;45374;-82
2023/10/01 00:35:21;;;;;;;;;16.00;16.00;;;;;17.80;69.02;101765.22;5057302;28;45258;-82
2023/10/01 00:37:46;;;;;;;;;18.67;16.67;;;;;17.78;69.01;101759.06;5056174;28;63142;-81
2023/10/01 00:40:13;;;;;;;;;17.67;16.33;;;;;17.74;69.35;101750.34;5056888;28;45223;-81
2023/10/01 00:42:39;;;;;;;;;17.67;16.00;;;;;17.78;68.94;101761.78;5056980;28;45195;-82
2023/10/01 00:45:11;;;;;;;;;20.00;16.67;;;;;17.74;69.75;101749.50;5056119;28;45374;-82
2023/10/01 00:47:41;;;;;;;;;25.67;18.33;;;;;17.69;69.72;101742.56;5056765;28;45290;-82
2023/10/01 00:50:15;;;;;;;;;16.33;15.33;;;;;17.58;69.55;101733.50;5066941;28;45414;-81
2023/10/01 00:52:41;;;;;;;;;15.00;14.67;;;;;17.39;69.79;101696.22;5077417;27;45365;-83
2023/10/01 00:55:08;;;;;;;;;22.33;15.00;;;;;17.60;69.93;101740.50;5076906;27;45414;-79
2023/10/01 00:57:37;;;;;;;;;25.67;18.33;;;;;17.57;70.28;101732.59;5076880;28;45404;-82
2023/10/01 01:00:05;;;;;;;;;16.67;13.00;;;;;17.45;70.51;101717.31;5077097;27;45309;-81
2023/10/01 01:02:31;;;;;;;;;21.33;18.33;;;;;17.41;70.43;101721.16;5077327;28;45321;-82
2023/10/01 01:05:19;;;;;;;;;19.33;15.33;;;;;17.32;70.91;101697.59;5076661;27;45356;-82
2023/10/01 01:07:47;;;;;;;;;18.33;14.00;;;;;17.45;70.68;101714.63;5076417;27;45274;-82
2023/10/01 01:10:16;;;;;;;;;17.67;17.67;;;;;17.44;70.52;101717.41;5074997;28;45197;-83
2023/10/01 01:12:41;;;;;;;;;15.00;13.67;;;;;17.46;70.54;101727.13;5073866;28;45532;-80
2023/10/01 01:15:12;;;;;;;;;20.67;18.00;;;;;17.51;70.51;101724.09;5057597;28;46714;-81
2023/10/01 01:17:38;;;;;;;;;22.00;20.33;;;;;17.40;70.74;101708.69;5057167;28;45521;-81
2023/10/01 01:20:09;;;;;;;;;20.00;17.67;;;;;17.47;70.75;101711.84;5074286;28;45339;-82
2023/10/01 01:22:36;;;;;;;;;17.67;16.33;;;;;17.47;70.94;101720.78;5076833;27;45272;-83
2023/10/01 01:25:10;;;;;;;;;19.00;17.00;;;;;17.51;70.93;101724.97;5061518;27;45800;-80
2023/10/01 01:27:36;;;;;;;;;21.00;16.67;;;;;17.35;71.02;101690.19;5055875;28;45238;-81
2023/10/01 01:30:07;;;;;;;;;18.33;18.33;;;;;17.48;71.16;101719.81;5055762;28;45254;-81
2023/10/01 01:32:36;;;;;;;;;14.67;14.67;;;;;17.45;71.54;101714.63;5054559;28;45319;-80
2023/10/01 01:35:02;;;;;;;;;20.33;15.33;;;;;17.34;71.72;101701.03;5056220;28;45898;-81
2023/10/01 01:37:46;;;;;;;;;21.33;19.00;;;;;17.29;71.25;101676.28;5072447;28;45198;-80
2023/10/01 01:40:25;;;;;;;;;19.67;18.00;;;;;17.34;71.74;101690.28;5076711;28;45789;-82
2023/10/01 01:42:56;;;;;;;;;19.00;17.33;;;;;17.34;72.06;101696.53;5076633;27;45435;-82
2023/10/01 01:45:25;;;;;;;;;16.00;15.00;;;;;17.32;71.64;101700.28;5076069;27;46076;-82
2023/10/01 01:47:52;;;;;;;;;20.00;18.00;;;;;17.26;72.27;101682.72;5076042;27;45358;-80
2023/10/01 01:50:35;;;;;;;;;20.00;17.00;;;;;17.07;72.50;101655.34;5076064;27;45474;-82
2023/10/01 01:53:04;;;;;;;;;19.33;17.00;;;;;16.99;72.56;101647.78;5092174;27;45499;-82
2023/10/01 01:55:34;;;;;;;;;18.33;16.33;;;;;17.17;72.45;101685.16;5076264;27;45424;-82
2023/10/01 01:58:10;;;;;;;;;20.67;19.67;;;;;17.20;72.36;101680.47;5076430;27;45557;-81
2023/10/01 02:00:47;;;;;;;;;21.00;18.00;;;;;17.28;72.48;101698.75;5076494;27;45353;-81
2023/10/01 02:03:14;;;;;;;;;22.33;16.67;;;;;17.29;72.42;101697.78;5076545;27;45318;-80
2023/10/01 02:05:41;;;;;;;;;18.33;17.00;;;;;17.25;72.56;101691.75;5075916;27;45621;-81
2023/10/01 02:08:09;;;;;;;;;11.67;9.33;;;;;17.19;72.82;101681.44;5075932;28;45208;-82
2023/10/01 02:10:44;;;;;;;;;21.00;18.00;;;;;17.19;72.79;101684.09;5076043;27;45238;-81
2023/10/01 02:13:13;;;;;;;;;19.67;15.33;;;;;17.25;72.59;101693.56;5066813;27;45356;-82
2023/10/01 02:15:38;;;;;;;;;22.67;16.67;;;;;17.28;72.58;101699.59;5055859;28;46110;-82
2023/10/01 02:18:04;;;;;;;;;21.00;18.33;;;;;17.31;72.45;101698.53;5056083;28;45360;-80
2023/10/01 02:20:33;;;;;;;;;21.33;17.33;;;;;17.26;72.32;101673.78;5055749;28;45334;-80
2023/10/01 02:23:02;;;;;;;;;19.33;17.00;;;;;17.30;72.29;101692.28;5055102;28;45335;-82
2023/10/01 02:25:37;;;;;;;;;17.67;16.00;;;;;17.35;72.22;101705.44;5055710;28;45291;-81
2023/10/01 02:28:12;;;;;;;;;17.00;17.00;;;;;17.31;72.26;101690.47;5055552;28;45355;-82
2023/10/01 02:30:41;;;;;;;;;25.67;18.00;;;;;17.30;72.51;101696.81;5055528;28;45443;-81
2023/10/01 02:33:17;;;;;;;;;19.67;19.33;;;;;17.28;72.65;101688.00;5064989;28;45490;-81
2023/10/01 02:35:54;;;;;;;;;22.00;17.67;;;;;17.22;72.34;101681.22;5065502;27;45417;-82
2023/10/01 02:41:09;;;;;;;;;24.00;17.67;;;;;17.22;72.40;101696.47;5075519;28;45376;-82
2023/10/01 02:43:36;;;;;;;;;19.00;17.67;;;;;17.29;72.67;101708.53;5076979;27;45388;-80
2023/10/01 02:46:10;;;;;;;;;17.67;17.00;;;;;17.20;72.58;101696.59;5078707;27;46087;-80
2023/10/01 02:48:40;;;;;;;;;19.00;15.67;;;;;17.22;72.68;101688.41;5079134;27;45238;-82
2023/10/01 02:51:14;;;;;;;;;20.67;18.00;;;;;17.28;72.79;101702.28;5061905;27;45346;-80
2023/10/01 02:53:42;;;;;;;;;15.33;15.33;;;;;17.13;72.86;101679.13;5064150;28;45262;-81
2023/10/01 02:56:12;;;;;;;;;22.33;17.00;;;;;17.15;72.75;101677.19;5062938;28;45484;-80
2023/10/01 02:58:49;;;;;;;;;21.33;18.67;;;;;17.20;72.88;101683.16;5078223;28;45246;-81
2023/10/01 03:01:14;;;;;;;;;17.33;17.33;;;;;17.12;73.08;101668.47;5079091;27;45216;-81
2023/10/01 03:03:40;;;;;;;;;21.67;17.33;;;;;17.23;73.03;101696.38;5078846;27;45418;-82
2023/10/01 03:06:09;;;;;;;;;15.67;15.67;;;;;17.08;73.00;101666.00;5078288;27;45401;-80
2023/10/01 03:08:59;;;;;;;;;18.00;17.00;;;;;17.16;73.14;101683.44;5078333;27;45393;-80
2023/10/01 03:11:25;;;;;;;;;22.33;16.33;;;;;17.19;73.20;101692.19;5071168;27;45782;-81
2023/10/01 03:13:54;;;;;;;;;19.33;17.67;;;;;17.04;73.40;101667.16;5057292;28;45649;-81
2023/10/01 03:16:42;;;;;;;;;21.67;18.00;;;;;17.10;73.74;101680.19;5071295;28;45490;-80
2023/10/01 03:19:24;;;;;;;;;17.33;16.67;;;;;17.10;74.00;101690.94;5078342;27;45320;-81
2023/10/01 03:24:32;;;;;;;;;19.67;16.33;;;;;17.07;73.73;101680.41;5071144;28;45315;-81
2023/10/01 03:26:59;;;;;;;;;22.33;18.33;;;;;17.10;73.92;101684.72;5065342;28;47761;-82
2023/10/01 03:29:34;;;;;;;;;18.67;17.33;;;;;17.06;73.98;101685.88;5075487;27;45411;-80
2023/10/01 03:32:27;;;;;;;;;11.67;10.67;;;;;17.04;73.69;101690.47;5075955;27;45406;-80
2023/10/01 03:34:46;;;;;;;;;17.00;15.67;;;;;17.04;73.87;101688.66;5077980;28;45471;-81
2023/10/01 03:37:19;;;;;;;;;16.67;14.67;;;;;17.00;74.17;101678.22;5077249;27;59022;-81
2023/10/01 03:39:46;;;;;;;;;18.33;16.67;;;;;17.01;74.07;101685.31;5075062;27;45645;-80
2023/10/01 03:42:17;;;;;;;;;17.67;16.67;;;;;16.99;74.27;101671.13;5057980;28;45409;-81
2023/10/01 03:47:29;;;;;;;;;21.00;14.33;;;;;16.85;74.90;101677.38;5057431;28;45432;-81
2023/10/01 03:49:57;;;;;;;;;17.67;17.67;;;;;16.87;74.79;101672.78;5058740;28;45447;-81
2023/10/01 03:52:22;;;;;;;;;17.00;16.00;;;;;16.80;75.24;101679.53;5078044;27;45639;-80
2023/10/01 03:57:23;;;;;;;;;17.00;16.00;;;;;16.69;75.55;101673.97;5077530;27;45313;-79
2023/10/01 03:59:53;;;;;;;;;19.67;17.33;;;;;16.62;75.56;101668.09;5077659;28;45408;-81
2023/10/01 04:02:42;;;;;;;;;22.33;17.33;;;;;16.48;76.50;101663.59;5078090;27;45297;-80
2023/10/01 04:05:31;;;;;;;;;10.00;10.00;;;;;16.44;76.53;101664.78;5078178;27;45317;-81
2023/10/01 04:07:59;;;;;;;;;18.67;17.33;;;;;16.45;76.89;101668.31;5078131;27;45573;-80
2023/10/01 04:12:54;;;;;;;;;18.33;17.00;;;;;16.31;76.81;101649.53;5077528;27;45271;-80
2023/10/01 04:15:29;;;;;;;;;22.67;18.33;;;;;16.39;77.03;101672.22;5077371;27;45318;-81
2023/10/01 04:21:43;;;;;;;;;17.67;16.67;;;;;16.32;76.98;101657.50;5077154;27;45296;-80
2023/10/01 04:23:41;;;;;;;;;21.00;17.00;;;;;16.34;76.84;101666.31;5063888;28;45482;-80
2023/10/01 04:26:13;;;;;;;;;12.00;10.67;;;;;16.31;77.45;101665.66;5076737;28;45478;-80
2023/10/01 04:28:46;;;;;;;;;12.67;12.67;;;;;16.30;77.39;101669.28;5056530;27;46460;-81
2023/10/01 04:31:22;;;;;;;;;10.00;8.00;;;;;16.21;77.41;101668.91;5057093;28;45341;-80
2023/10/01 04:33:49;;;;;;;;;21.67;17.00;;;;;16.27;77.61;101677.50;5057311;28;45452;-83
2023/10/01 04:36:16;;;;;;;;;16.00;16.00;;;;;16.18;77.91;101662.88;5062346;28;45588;-79
2023/10/01 04:38:43;;;;;;;;;17.00;14.33;;;;;16.21;78.02;101679.63;5077841;28;46138;-81
2023/10/01 04:41:13;;;;;;;;;18.67;15.00;;;;;16.11;77.96;101656.13;5069038;28;45238;-81
2023/10/01 04:43:51;;;;;;;;;18.00;15.67;;;;;15.93;78.06;101634.88;5059512;28;45394;-79
2023/10/01 04:46:20;;;;;;;;;16.67;16.67;;;;;16.21;78.08;101681.47;5060473;28;45297;-82
2023/10/01 04:48:47;;;;;;;;;15.67;14.33;;;;;16.18;78.33;101681.66;5062712;28;45452;-79
2023/10/01 04:51:13;;;;;;;;;15.00;14.00;;;;;16.14;77.96;101678.28;5067844;28;45410;-82
2023/10/01 04:53:39;;;;;;;;;21.00;17.67;;;;;16.10;78.34;101666.00;5074827;28;45266;-79
2023/10/01 04:56:05;;;;;;;;;20.00;19.00;;;;;16.21;77.89;101670.72;5079300;27;45403;-82
2023/10/01 04:58:36;;;;;;;;;19.00;17.00;;;;;16.23;77.80;101671.47;5077396;28;46249;-81
2023/10/01 05:01:05;;;;;;;;;14.33;13.00;;;;;16.17;77.92;101656.63;5076618;27;45424;-81
2023/10/01 05:03:38;;;;;;;;;22.67;15.00;;;;;16.24;77.76;101683.94;5077037;28;45365;-81
2023/10/01 05:06:12;;;;;;;;;20.67;18.67;;;;;16.25;77.99;101684.81;5078038;27;45286;-80
2023/10/01 05:08:38;;;;;;;;;14.33;14.33;;;;;16.23;78.34;101690.28;5077085;27;45269;-82
2023/10/01 05:11:16;;;;;;;;;24.33;18.33;;;;;16.05;77.83;101656.53;5076490;27;45450;-81
2023/10/01 05:13:47;;;;;;;;;18.33;16.00;;;;;16.18;77.67;101679.84;5074925;28;45706;-82
2023/10/01 05:16:14;;;;;;;;;19.67;18.00;;;;;16.17;78.07;101679.94;5076688;27;45459;-81
2023/10/01 05:18:45;;;;;;;;;21.33;12.67;;;;;16.15;77.94;101673.81;5076233;28;45392;-81
2023/10/01 05:21:13;;;;;;;;;20.33;18.67;;;;;16.15;77.83;101685.41;5076638;27;45512;-79
2023/10/01 05:23:40;;;;;;;;;22.00;18.33;;;;;16.17;78.17;101688.84;5076730;27;45308;-81
2023/10/01 05:26:08;;;;;;;;;15.33;15.33;;;;;16.16;78.32;101683.56;5077082;27;45639;-80
2023/10/01 05:28:41;;;;;;;;;20.00;17.33;;;;;16.11;78.55;101674.94;5076314;27;45491;-82
2023/10/01 05:31:14;;;;;;;;;18.67;18.00;;;;;16.05;78.31;101664.59;5057363;27;45301;-82
2023/10/01 05:33:45;;;;;;;;;17.67;15.33;;;;;16.05;78.46;101667.28;5056428;28;45401;-81
2023/10/01 05:36:11;;;;;;;;;20.00;16.00;;;;;16.16;78.32;101691.63;5056353;28;45448;-80
2023/10/01 05:38:37;;;;;;;;;16.33;14.67;;;;;15.97;77.94;101648.94;5060199;28;45398;-79
2023/10/01 05:41:09;;;;;;;;;14.67;14.33;;;;;16.22;78.17;101699.28;5076536;27;45433;-82
2023/10/01 05:43:43;;;;;;;;;17.00;13.67;;;;;16.21;78.22;101697.56;5068533;27;45282;-82
2023/10/01 05:46:09;;;;;;;;;18.67;16.67;;;;;16.18;77.98;101692.38;5054805;28;45319;-80
2023/10/01 05:48:43;;;;;;;;;20.00;17.00;;;;;16.16;78.21;101680.88;5055336;28;46133;-80
2023/10/01 05:51:15;;;;;;;;;15.67;14.00;;;;;16.16;78.14;101680.88;5055717;28;45234;-81
2023/10/01 05:53:41;;;;;;;;;21.33;19.33;;;;;16.08;77.99;101669.75;5055860;28;45333;-79
2023/10/01 05:56:07;;;;;;;;;20.67;17.00;;;;;16.11;77.86;101667.75;5065385;28;45329;-80
2023/10/01 05:58:34;;;;;;;;;15.67;15.67;;;;;16.18;77.83;101687.88;5075725;27;46212;-81
2023/10/01 06:01:06;;;;;;;;;21.33;19.00;;;;;16.22;77.93;101681.34;5076158;27;45367;-81
2023/10/01 06:03:33;;;;;;;;;19.00;16.67;;;;;16.29;77.52;101703.31;5070981;27;45498;-80
2023/10/01 06:05:59;;;;;;;;;19.00;15.33;;;;;16.35;77.46;101697.56;5058349;28;46114;-77
2023/10/01 06:08:26;;;;;;;;;19.67;15.33;;;;;16.42;77.34;101709.66;5057468;28;46405;-81
2023/10/01 06:11:05;;;;;;;;;17.33;17.00;;;;;16.42;77.15;101708.78;5074386;28;45425;-82
2023/10/01 06:13:37;;;;;;;;;23.67;16.33;;;;;16.46;77.52;101705.81;5075418;27;45430;-79
2023/10/01 06:16:11;;;;;;;;;22.33;18.67;;;;;16.31;77.31;101674.56;5076092;27;45917;-80
2023/10/01 06:21:32;;;;;;;;;19.33;17.00;;;;;16.39;77.12;101688.34;5049257;27;45439;-82
2023/10/01 06:24:03;;;;;;;;;19.00;16.67;;;;;16.51;76.66;101706.38;5067749;27;45449;-83
2023/10/01 06:26:50;;;;;;;;;21.33;15.00;;;;;16.51;76.82;101709.06;5057389;28;45265;-82
2023/10/01 06:29:16;;;;;;;;;20.00;18.33;;;;;16.66;76.44;101706.34;5058657;28;45854;-83
2023/10/01 06:31:52;;;;;;;;;17.67;15.67;;;;;16.67;76.36;101702.72;5059032;28;45356;-82
2023/10/01 06:34:21;;;;;;;;;16.67;14.33;;;;;16.73;76.23;101707.72;5058790;28;45379;-85
2023/10/01 06:36:56;;;;;;;;;17.67;16.00;;;;;16.83;75.71;101708.00;5058547;28;45342;-82
2023/10/01 06:39:23;;;;;;;;;22.00;19.00;;;;;16.97;75.32;101703.47;5074796;28;45968;-82
2023/10/01 06:41:49;;;;;;;;;24.67;20.33;;;;;17.02;74.71;101692.41;5078160;28;45539;-82
2023/10/01 06:44:15;;;;;;;;;22.00;18.00;;;;;17.08;74.33;101682.13;5065187;28;45490;-80
2023/10/01 06:46:40;;;;;;;;;18.33;18.33;;;;;17.20;74.18;101693.03;5077728;28;45385;-83
2023/10/01 06:49:08;;;;;;;;;21.00;19.00;;;;;17.21;73.89;101694.75;5076684;28;46090;-83
2023/10/01 06:51:43;;;;;;;;;20.00;16.67;;;;;17.19;73.86;101689.50;5070470;28;45493;-81
2023/10/01 06:54:14;;;;;;;;;16.00;15.00;;;;;17.20;74.22;101690.34;5079509;27;45790;-84
2023/10/01 06:56:47;;;;;;;;;21.67;19.00;;;;;17.14;74.15;101685.34;5061470;27;45344;-81
2023/10/01 06:59:13;;;;;;;;;20.67;18.33;;;;;17.21;73.90;101698.31;5078481;28;46152;-83
2023/10/01 07:01:56;;;;;;;;;19.67;15.33;;;;;17.14;73.82;101678.16;5075413;28;45437;-79
2023/10/01 07:04:23;;;;;;;;;20.33;18.00;;;;;17.25;73.57;101688.19;5077283;27;46778;-80
2023/10/01 07:06:50;;;;;;;;;18.33;18.33;;;;;17.28;73.45;101699.59;5073917;27;45296;-80
2023/10/01 07:09:27;;;;;;;;;19.67;18.00;;;;;17.32;73.50;101689.53;5077533;28;46337;-78
2023/10/01 07:11:56;;;;;;;;;18.33;18.33;;;;;17.35;73.41;101697.38;5069004;28;45446;-78
2023/10/01 07:14:30;;;;;;;;;18.67;18.00;;;;;17.35;73.32;101700.06;5062000;27;45440;-79
2023/10/01 07:16:57;;;;;;;;;18.67;13.67;;;;;17.36;72.97;101691.03;5060360;28;45299;-81
2023/10/01 07:19:23;;;;;;;;;17.67;17.67;;;;;17.43;72.92;101695.03;5072654;27;45750;-81
2023/10/01 07:21:56;;;;;;;;;21.33;17.00;;;;;17.45;72.90;101692.22;5077226;28;45434;-79
2023/10/01 07:24:31;;;;;;;;;15.00;15.00;;;;;17.35;72.82;101679.44;5062833;27;45227;-81
2023/10/01 07:27:06;;;;;;;;;27.00;19.33;;;;;17.45;72.63;101686.84;5072389;28;45432;-80
2023/10/01 07:29:36;;;;;;;;;21.00;16.67;;;;;17.49;72.22;101680.31;5068456;27;45445;-81
2023/10/01 07:32:06;;;;;;;;;20.00;20.00;;;;;17.58;71.99;101690.47;5059514;28;45483;-82
2023/10/01 07:34:32;;;;;;;;;26.00;22.00;;;;;17.52;71.99;101658.59;5060731;28;45458;-83
2023/10/01 07:36:59;;;;;;;;;19.67;18.00;;;;;17.55;71.68;101664.63;5074848;28;45732;-84
2023/10/01 07:39:30;;;;;;;;;18.67;17.67;;;;;17.85;71.42;101693.97;5057507;28;45353;-82
2023/10/01 07:41:59;;;;;;;;;22.33;21.33;;;;;17.87;71.00;101696.56;5071311;28;45322;-83
2023/10/01 07:44:24;;;;;;;;;20.33;18.00;;;;;17.79;70.59;101666.63;5080019;28;45334;-84
2023/10/01 07:46:50;;;;;;;;;20.33;19.33;;;;;18.04;70.24;101693.56;5076269;27;45288;-81
2023/10/01 07:49:18;;;;;;;;;18.00;17.00;;;;;18.11;70.09;101702.94;5057515;28;46105;-83
2023/10/01 07:51:44;;;;;;;;;20.33;19.67;;;;;18.05;70.30;101697.97;5057709;28;45379;-83
2023/10/01 07:54:10;;;;;;;;;17.33;16.00;;;;;18.08;70.50;101713.91;5063929;28;45480;-81
2023/10/01 07:56:48;;;;;;;;;29.00;21.00;;;;;18.16;70.25;101719.63;5058932;28;45584;-78
2023/10/01 07:59:33;;;;;;;;;27.67;19.33;;;;;18.27;69.84;101716.19;5061520;28;45389;-80
2023/10/01 08:07:30;;;;;;;;;22.67;17.67;;;;;18.44;69.19;101705.06;5070662;28;45374;-82
2023/10/01 08:09:57;;;;;;;;;20.33;17.00;;;;;18.50;68.93;101712.72;5087634;27;45326;-82
2023/10/01 08:12:29;;;;;;;;;23.67;19.00;;;;;18.33;69.21;101674.47;5081626;28;45390;-85
2023/10/01 08:17:43;;;;;;;;;19.00;14.33;;;;;18.64;68.64;101713.59;5060660;28;45391;-82
2023/10/01 08:20:21;;;;;;;;;19.33;18.00;;;;;18.66;68.24;101717.03;5070266;28;47190;-82
2023/10/01 08:23:12;;;;;;;;;20.67;18.67;;;;;18.72;68.09;101717.44;5077633;27;45262;-80
2023/10/01 08:25:33;;;;;;;;;19.67;19.00;;;;;18.80;67.92;101723.13;5071838;28;45323;-81
2023/10/01 08:30:39;;;;;;;;;18.33;17.33;;;;;18.81;67.91;101722.16;5058663;28;45410;-81
2023/10/01 08:33:26;;;;;;;;;25.33;21.33;;;;;18.77;67.47;101717.97;5064258;28;45489;-80
2023/10/01 08:36:01;;;;;;;;;20.67;20.33;;;;;18.92;67.86;101725.91;5083224;27;45239;-80
2023/10/01 08:38:29;;;;;;;;;26.67;19.33;;;;;18.97;67.25;101726.44;5060748;28;45362;-81
2023/10/01 08:41:02;;;;;;;;;23.67;19.67;;;;;19.10;67.33;101735.34;5055715;28;45519;-79
2023/10/01 08:43:31;;;;;;;;;23.67;21.00;;;;;19.14;66.93;101716.16;5067554;28;45482;-81
2023/10/01 08:46:06;;;;;;;;;19.00;19.00;;;;;19.20;66.50;101717.50;5055913;28;45411;-80
2023/10/01 08:48:36;;;;;;;;;20.33;18.00;;;;;19.13;66.56;101700.06;5061954;28;45448;-83
2023/10/01 08:51:11;;;;;;;;;24.67;19.33;;;;;19.25;66.17;101714.47;5064488;28;46020;-82
2023/10/01 08:53:41;;;;;;;;;22.67;20.00;;;;;19.29;66.12;101719.53;5074854;28;45500;-81
2023/10/01 08:56:07;;;;;;;;;22.00;18.33;;;;;19.37;66.12;101727.88;5068585;28;45483;-83
2023/10/01 08:58:50;;;;;;;;;18.00;15.00;;;;;19.43;65.22;101734.69;5075590;27;45566;-81
2023/10/01 09:01:20;;;;;;;;;15.33;15.33;;;;;19.43;65.93;101713.97;5056346;28;45489;-85
2023/10/01 09:03:49;;;;;;;;;19.67;17.67;;;;;19.40;65.50;101700.72;5065156;28;45460;-81
2023/10/01 09:06:25;;;;;;;;;19.00;16.67;;;;;19.54;65.58;101713.16;5093576;27;45270;-82
2023/10/01 09:08:54;;;;;;;;;19.00;18.33;;;;;19.36;65.64;101677.63;5073871;28;45818;-82
2023/10/01 09:11:35;;;;;;;;;26.67;21.67;;;;;19.53;65.70;101697.06;5060306;28;45428;-82
2023/10/01 09:14:17;;;;;;;;;23.67;19.33;;;;;19.78;65.09;101713.13;5076404;28;45419;-83
2023/10/01 09:16:58;;;;;;;;;21.67;18.33;;;;;19.75;65.13;101710.66;5058352;27;45398;-82
2023/10/01 09:19:31;;;;;;;;;20.00;17.33;;;;;19.81;64.77;101717.44;5067725;28;45462;-82
2023/10/01 09:22:08;;;;;;;;;20.00;18.67;;;;;19.93;64.64;101722.75;5073020;28;46107;-82
2023/10/01 09:24:42;;;;;;;;;19.33;19.00;;;;;19.56;64.82;101664.50;5070201;28;45611;-82
2023/10/01 09:27:30;;;;;;;;;22.33;18.67;;;;;19.90;64.55;101695.97;5068592;27;45637;-82
2023/10/01 09:30:26;;;;;;;;;20.67;18.00;;;;;20.18;64.04;101707.31;5061606;28;45567;-82
2023/10/01 09:32:54;;;;;;;;;22.67;20.33;;;;;20.32;63.41;101712.50;5073822;28;45446;-81
2023/10/01 09:35:38;;;;;;;;;22.67;17.00;;;;;20.44;63.23;101722.34;5055279;28;45447;-82
2023/10/01 09:38:10;;;;;;;;;12.00;12.00;;;;;20.43;63.45;101703.56;5068827;28;45448;-81
2023/10/01 09:40:44;;;;;;;;;15.33;10.00;;;;;20.52;63.22;101719.03;5066297;28;45365;-82
2023/10/01 09:43:30;;;;;;;;;13.67;12.00;;;;;20.49;63.12;101697.69;5076830;28;45733;-83
2023/10/01 09:46:00;;;;;;;;;12.67;10.67;;;;;20.57;62.81;101706.91;5058719;28;45465;-83
2023/10/01 09:48:33;;;;;;;;;15.67;13.33;;;;;20.70;62.88;101706.75;5072578;28;45222;-82
2023/10/01 09:51:08;;;;;;;;;15.67;12.67;;;;;20.83;62.39;101717.41;5064047;28;45485;-83
2023/10/01 09:54:00;;;;;;;;;13.33;11.00;;;;;20.86;62.46;101706.38;5076680;28;45507;-81
2023/10/01 09:59:11;;;;;;;;;15.67;14.33;;;;;21.03;62.15;101692.31;5067008;28;45516;-82
2023/10/01 10:01:38;;;;;;;;;13.67;13.00;;;;;21.18;61.40;101695.59;5073217;27;45480;-84
2023/10/01 10:04:11;;;;;;;;;15.00;15.00;;;;;21.17;61.40;101693.88;5065934;28;47255;-83
2023/10/01 10:06:41;;;;;;;;;14.67;11.33;;;;;21.20;60.99;101680.94;5062031;28;45518;-86
2023/10/01 10:09:26;;;;;;;;;14.00;12.33;;;;;21.39;60.63;101693.84;5064949;28;45431;-85
2023/10/01 10:11:52;;;;;;;;;14.67;13.67;;;;;21.59;60.82;101684.00;5074904;27;45538;-84
2023/10/01 10:14:24;;;;;;;;;21.33;15.67;;;;;21.79;60.05;101682.31;5071362;28;45976;-85
2023/10/01 10:17:19;;;;;;;;;14.33;14.33;;;;;21.99;59.28;101686.00;5066599;28;45445;-83
2023/10/01 10:20:24;;;;;;;;;14.33;14.33;;;;;22.14;58.96;101675.72;5062446;28;45393;-85
2023/10/01 10:23:29;;;;;;;;;14.67;14.33;;;;;22.55;57.75;101691.03;5066178;28;45701;-85
2023/10/01 10:26:13;;;;;;;;;17.33;15.33;;;;;22.77;57.11;101688.09;5054708;27;45305;-82
2023/10/01 10:28:55;;;;;;;;;14.00;14.00;;;;;22.82;56.78;101656.00;5081410;27;45389;-86
2023/10/01 10:31:36;;;;;;;;;17.00;12.33;;;;;23.28;56.58;101681.66;5067384;28;45470;-83
2023/10/01 10:34:25;;;;;;;;;13.00;11.33;;;;;23.60;54.92;101670.53;5065439;28;45398;-82
2023/10/01 10:36:54;;;;;;;;;15.67;12.00;;;;;23.71;54.72;101655.97;5073601;28;45483;-83
2023/10/01 10:39:44;;;;;;;;;14.67;14.00;;;;;24.03;53.92;101661.03;5079991;28;45398;-83
2023/10/01 10:42:28;;;;;;;;;12.67;12.67;;;;;24.25;52.93;101668.81;5072656;27;45473;-82
2023/10/01 10:45:24;;;;;;;;;9.00;7.67;;;;;24.54;53.33;101671.44;5082200;28;45477;-83
2023/10/01 10:48:01;;;;;;;;;16.75;9.50;;;;;24.81;52.05;101656.13;5069686;28;45394;-83
2023/10/01 10:50:46;;;;;;;;;9.75;9.75;;;;;25.02;51.46;101658.59;5097368;27;45369;-81
2023/10/01 10:53:20;;;;;;;;;8.75;8.00;;;;;25.08;50.82;101645.22;5062418;28;45547;-82
2023/10/01 10:56:10;;;;;;;;;10.50;9.50;;;;;25.49;49.65;101661.94;5058027;28;45636;-82
2023/10/01 10:59:13;;;;;;;;;7.75;7.75;;;;;25.88;49.99;101652.38;5083732;28;45525;-81
2023/10/01 11:01:56;;;;;;;;;9.50;8.50;;;;;26.25;48.42;101643.06;5087425;27;45273;-82
2023/10/01 11:04:30;;;;;;;;;13.75;11.25;;;;;26.69;48.02;101649.28;5085674;27;45301;-84
2023/10/01 11:07:02;;;;;;;;;9.25;7.50;;;;;26.77;46.17;101621.13;5083344;28;45358;-86
2023/10/01 11:09:30;;;;;;;;;7.75;5.50;;;;;27.43;46.08;101650.28;5073725;28;45376;-82
2023/10/01 11:12:01;;;;;;;;;7.60;7.20;;;;;27.86;44.67;101657.28;5073614;28;45504;-85
2023/10/01 11:14:26;;;;;;;;;11.40;8.20;;;;;28.02;44.95;101648.22;5078060;28;45408;-83
2023/10/01 11:16:52;;;;;;;;;7.75;5.00;;;;;28.13;43.25;101647.00;5087321;27;45388;-84
2023/10/01 11:19:27;;;;;;;;;12.00;9.00;;;;;28.22;43.54;101645.91;5084206;27;46362;-83
2023/10/01 11:21:55;;;;;;;;;10.40;10.40;;;;;28.21;43.36;101628.66;5085853;27;45329;-80
2023/10/01 11:24:42;;;;;;;;;10.80;6.60;;;;;28.42;42.31;101636.31;5084764;28;45375;-83
2023/10/01 11:27:43;;;;;;;;;12.75;8.50;;;;;28.64;42.29;101631.06;5089054;28;45234;-81
2023/10/01 11:30:15;;;;;;;;;7.80;6.00;;;;;28.94;41.67;101635.72;5087542;27;45350;-83
2023/10/01 11:33:01;;;;;;;;;10.20;9.00;;;;;29.29;41.56;101634.25;5084739;28;45383;-82
2023/10/01 11:35:41;;;;;;;;;11.00;8.60;;;;;29.40;41.05;101635.72;5072897;28;45409;-82
2023/10/01 11:38:08;;;;;;;;;9.00;7.00;;;;;29.41;40.52;101631.09;5094099;27;45563;-81
2023/10/01 11:43:35;;;;;;;;;8.40;8.40;;;;;30.07;39.29;101622.09;5066982;28;45338;-82
2023/10/01 11:46:23;;;;;;;;;11.80;9.00;;;;;30.21;39.28;101621.28;5068612;28;45312;-83
2023/10/01 11:49:09;;;;;;;;;13.60;8.60;;;;;30.24;38.80;101622.78;5080234;27;45159;-83
2023/10/01 11:51:45;;;;;;;;;7.00;5.80;;;;;30.57;38.39;101603.13;5076712;27;45747;-82
2023/10/01 11:54:12;;;;;;;;;9.40;9.40;;;;;30.78;37.64;101598.56;5078990;27;45239;-82
2023/10/01 11:56:40;;;;;;;;;9.40;9.40;;;;;30.97;37.04;101615.44;5079976;28;45390;-82
2023/10/01 11:59:10;;;;;;;;;9.80;9.60;;;;;31.59;37.05;101595.53;5078756;28;45580;-83
2023/10/01 12:01:45;;;;;;;;;9.60;7.40;;;;;32.48;35.94;101612.22;5080227;27;46942;-80
2023/10/01 12:04:11;;;;;;;;;9.00;9.00;;;;;33.14;34.18;101616.03;5086977;27;45364;-82
2023/10/01 12:06:38;;;;;;;;;12.00;9.75;;;;;33.61;32.08;101618.88;5081245;28;45244;-83
2023/10/01 12:09:04;;;;;;;;;8.80;6.80;;;;;33.93;32.08;101614.38;5078833;28;45381;-82
2023/10/01 12:11:31;;;;;;;;;10.00;10.00;;;;;34.51;31.40;101611.72;5082179;27;45582;-83